»·PEaware :: N755AJ KDVT-P52

N755AJ :: KDVT-P52

FLIGHT INFORMATION

Flight Status: Arrived
Operator: Privately registered:
United States
More flights under this callsign
Pilot: Dan H. (3292)
Aircraft: CESSNA 172 SKYHAWK
(C172)
More flights by this aircraft type
Origin: KDVT Phoenix Deer Valley
United States
Destination: P52 Cottonwood
United States
More flights between these airports :: More routes between these airports
Route: AVENT V257 MAIER
File this flight plan on PilotEdge
Remarks:
Altitude:
(Current/Filed)
10,000ft
Speed:
(Current/Filed)
120kts
Departed: 10-Mar-18 08:33 PM
Arrived: 10-Mar-18 09:15 PM
Distance/Time
Traveled:
63nm/0:42
Distance/Time
To Go:
Arrived

Flight Plot

Page will automatically refresh every two minutes.

Flight plan parsing failed; only flown route is shown


Map Options




Map Legend


Flown Route
Filed Route
Departure Airport
Arrival Airport
Navaid (VOR, NDB)
Fix

Horizontal Profiles

Position Reports

Time Latitude Longitude Heading Altitude Ground
Speed
10-Mar-18 20:09 33.685957 -112.091873 87 1482ft 0kts
10-Mar-18 20:10 33.685957 -112.091873 87 1482ft 0kts
10-Mar-18 20:11 33.685957 -112.091873 87 1482ft 0kts
10-Mar-18 20:12 33.685957 -112.091873 87 1482ft 0kts
10-Mar-18 20:13 33.685957 -112.091873 87 1482ft 0kts
10-Mar-18 20:14 33.685957 -112.091873 87 1482ft 0kts
10-Mar-18 20:16 33.685957 -112.091873 87 1482ft 0kts
10-Mar-18 20:17 33.685957 -112.091873 87 1482ft 0kts
10-Mar-18 20:18 33.685957 -112.091873 87 1482ft 0kts
10-Mar-18 20:20 33.685957 -112.091873 87 1482ft 0kts
10-Mar-18 20:21 33.685957 -112.091873 87 1482ft 0kts
10-Mar-18 20:22 33.685957 -112.091873 87 1482ft 0kts
10-Mar-18 20:23 33.685957 -112.091873 87 1482ft 0kts
10-Mar-18 20:24 33.685957 -112.091873 87 1482ft 0kts
10-Mar-18 20:25 33.685957 -112.091873 87 1482ft 0kts
10-Mar-18 20:26 33.685957 -112.091873 87 1482ft 0kts
10-Mar-18 20:27 33.685958 -112.091835 85 1482ft 0kts
10-Mar-18 20:28 33.686195 -112.091581 356 1482ft 5kts
10-Mar-18 20:29 33.685994 -112.094402 352 1482ft 0kts
10-Mar-18 20:30 33.686162 -112.095127 266 1482ft 13kts
10-Mar-18 20:31 33.686505 -112.096187 358 1482ft 16kts
10-Mar-18 20:32 33.687501 -112.076226 82 1968ft 80kts
10-Mar-18 20:33 33.689985 -112.049678 77 2813ft 84kts
10-Mar-18 20:34 33.709314 -112.042011 12 3596ft 83kts
10-Mar-18 20:35 33.734911 -112.045895 347 4126ft 97kts
10-Mar-18 20:36 33.760859 -112.053555 350 4758ft 96kts
10-Mar-18 20:37 33.785588 -112.060228 345 5461ft 90kts
10-Mar-18 20:38 33.809975 -112.066616 344 6091ft 90kts
10-Mar-18 20:39 33.834413 -112.072924 343 6687ft 90kts
10-Mar-18 20:40 33.858906 -112.079227 342 7283ft 90kts
10-Mar-18 20:41 33.883580 -112.085550 341 7843ft 91kts
10-Mar-18 20:42 33.911130 -112.092611 342 7999ft 113kts
10-Mar-18 20:43 33.942883 -112.100633 342 7998ft 118kts
10-Mar-18 20:44 33.970334 -112.107639 340 8617ft 92kts
10-Mar-18 20:45 33.995512 -112.114182 339 9070ft 93kts
10-Mar-18 20:46 34.020961 -112.120741 338 9486ft 94kts
10-Mar-18 20:47 34.046634 -112.127339 337 9867ft 95kts
10-Mar-18 20:48 34.074280 -112.134490 339 9999ft 110kts
10-Mar-18 20:49 34.105016 -112.142304 339 10006ft 114kts
10-Mar-18 20:50 34.136128 -112.150271 339 10017ft 114kts
10-Mar-18 20:51 34.167013 -112.158222 340 10028ft 112kts
10-Mar-18 20:52 34.198929 -112.166515 338 10038ft 127kts
10-Mar-18 20:53 34.234802 -112.175738 339 9960ft 136kts
10-Mar-18 20:54 34.271157 -112.185017 339 9961ft 132kts
10-Mar-18 20:55 34.306587 -112.194082 338 9961ft 127kts
10-Mar-18 20:56 34.340547 -112.202194 356 9958ft 124kts
10-Mar-18 20:57 34.370092 -112.180081 35 9962ft 126kts
10-Mar-18 20:58 34.392580 -112.148253 60 9962ft 126kts
10-Mar-18 20:59 34.410323 -112.111709 59 9963ft 129kts
10-Mar-18 21:00 34.429952 -112.071354 60 9972ft 144kts
10-Mar-18 21:01 34.450450 -112.029070 61 9914ft 149kts
10-Mar-18 21:02 34.471266 -111.985730 53 9488ft 133kts
10-Mar-18 21:03 34.487434 -111.952675 49 9489ft 119kts
10-Mar-18 21:04 34.505068 -111.916147 51 9489ft 123kts
10-Mar-18 21:05 34.526684 -111.901256 327 9031ft 92kts
10-Mar-18 21:06 34.548189 -111.917248 325 7829ft 91kts
10-Mar-18 21:07 34.568691 -111.934030 326 7091ft 78kts
10-Mar-18 21:08 34.586750 -111.949078 327 6950ft 89kts
10-Mar-18 21:09 34.607970 -111.966556 327 6404ft 90kts
10-Mar-18 21:10 34.632052 -111.981291 336 5891ft 106kts
10-Mar-18 21:11 34.658710 -111.995923 336 5231ft 100kts
10-Mar-18 21:12 34.683658 -112.009634 336 4614ft 97kts
10-Mar-18 21:13 34.708461 -112.023277 336 3997ft 99kts
10-Mar-18 21:14 34.726312 -112.033108 336 3564ft 40kts
10-Mar-18 21:15 34.730640 -112.036035 333 3564ft 25kts
10-Mar-18 21:16 34.733362 -112.038449 63 3564ft 2kts

Navigation Log

Ident Type
Flight plan parsing failed, navigation log unavailable